Time;durP1;ratioP1;P1;durP2;ratioP2;P2;SDS_P1;SDS_P2;PMS_P1;PMS_P2;Temp;Humidity;BMP_temperature;BMP_pressure;BME280_temperature;BME280_humidity;BME280_pressure;Samples;Min_cycle;Max_cycle;Signal;HPM_P1;HPM_P2
2023/01/03 00:00:33;;;;;;;15.32;6.25;;;3.20;99.90;;;;;;5135057;27;20497;-41
2023/01/03 00:02:59;;;;;;;19.67;6.13;;;3.20;99.90;;;;;;5143537;27;20534;-42
2023/01/03 00:05:25;;;;;;;19.92;6.35;;;3.20;99.90;;;;;;5144012;27;20059;-40
2023/01/03 00:07:50;;;;;;;18.48;4.68;;;3.20;99.90;;;;;;5143287;27;20035;-40
2023/01/03 00:10:16;;;;;;;18.27;5.28;;;3.20;99.90;;;;;;5143411;27;20174;-40
2023/01/03 00:12:41;;;;;;;17.73;5.65;;;3.20;99.90;;;;;;5143733;27;20092;-41
2023/01/03 00:15:08;;;;;;;13.82;5.28;;;3.20;99.90;;;;;;5143515;27;20106;-40
2023/01/03 00:17:33;;;;;;;16.30;5.40;;;3.20;99.90;;;;;;5143458;27;20088;-42
2023/01/03 00:19:59;;;;;;;12.18;5.78;;;3.20;99.90;;;;;;5143869;27;20529;-41
2023/01/03 00:22:25;;;;;;;17.75;5.35;;;3.20;99.90;;;;;;5143193;27;20030;-42
2023/01/03 00:24:52;;;;;;;20.35;5.30;;;3.20;99.90;;;;;;5147394;27;20039;-40
2023/01/03 00:27:18;;;;;;;14.52;6.00;;;3.20;99.90;;;;;;5128444;27;20094;-43
2023/01/03 00:29:44;;;;;;;15.73;5.78;;;3.10;99.90;;;;;;5147315;27;20038;-42
2023/01/03 00:32:10;;;;;;;17.88;5.72;;;3.00;99.90;;;;;;5146469;27;20070;-39
2023/01/03 00:34:35;;;;;;;16.38;5.35;;;3.00;99.90;;;;;;5147708;27;20141;-40
2023/01/03 00:37:01;;;;;;;17.73;5.65;;;2.90;99.90;;;;;;5144822;27;20035;-43
2023/01/03 00:39:27;;;;;;;15.82;5.50;;;2.90;99.90;;;;;;5148214;27;20042;-40
2023/01/03 00:41:53;;;;;;;15.73;5.85;;;2.80;99.90;;;;;;5147033;27;20054;-43
2023/01/03 00:44:19;;;;;;;14.00;6.03;;;2.80;99.90;;;;;;5128567;27;20038;-42
2023/01/03 00:46:45;;;;;;;13.73;5.93;;;2.70;99.90;;;;;;5147028;27;20239;-41
2023/01/03 00:49:11;;;;;;;17.92;6.38;;;2.70;99.90;;;;;;5128868;27;20035;-41
2023/01/03 00:51:38;;;;;;;14.60;6.40;;;2.60;99.90;;;;;;5146741;27;20051;-40
2023/01/03 00:54:05;;;;;;;18.50;6.20;;;2.60;99.90;;;;;;5147150;27;20051;-41
2023/01/03 00:56:33;;;;;;;18.40;6.93;;;2.50;99.90;;;;;;5126632;27;20050;-43
2023/01/03 00:58:59;;;;;;;16.17;6.80;;;2.50;99.90;;;;;;5147409;27;20083;-44
2023/01/03 01:01:28;;;;;;;17.02;7.05;;;2.50;99.90;;;;;;5145312;27;20410;-41
2023/01/03 01:04:02;;;;;;;20.92;7.30;;;2.50;99.90;;;;;;5147161;27;20098;-38
2023/01/03 01:06:30;;;;;;;18.08;5.93;;;2.40;99.90;;;;;;5145839;27;20094;-43
2023/01/03 01:08:57;;;;;;;19.98;7.60;;;2.40;99.90;;;;;;5127469;27;20085;-44
2023/01/03 01:11:24;;;;;;;17.70;7.30;;;2.40;99.90;;;;;;5145882;27;20038;-42
2023/01/03 01:13:50;;;;;;;22.85;7.57;;;2.40;99.90;;;;;;5147576;27;20054;-44
2023/01/03 01:16:25;;;;;;;23.48;7.35;;;2.40;99.90;;;;;;5146141;27;20087;-42
2023/01/03 01:18:52;;;;;;;20.67;8.20;;;2.40;99.90;;;;;;5147187;27;20035;-42
2023/01/03 01:21:25;;;;;;;16.45;7.18;;;2.40;99.90;;;;;;5146184;27;20394;-41
2023/01/03 01:23:51;;;;;;;19.08;7.65;;;2.50;99.90;;;;;;5146457;27;20284;-40
2023/01/03 01:26:21;;;;;;;21.23;8.10;;;2.50;99.90;;;;;;5144542;27;20031;-40
2023/01/03 01:28:47;;;;;;;16.63;7.45;;;2.50;99.90;;;;;;5146882;27;20038;-41
2023/01/03 01:31:15;;;;;;;27.75;8.10;;;2.50;99.90;;;;;;5145063;27;20046;-41
2023/01/03 01:33:41;;;;;;;25.05;7.97;;;2.60;99.90;;;;;;5146466;27;20035;-40
2023/01/03 01:36:09;;;;;;;17.88;8.20;;;2.60;99.90;;;;;;5145851;27;20548;-42
2023/01/03 01:38:34;;;;;;;24.65;7.95;;;2.70;99.90;;;;;;5145324;27;20510;-41
2023/01/03 01:41:01;;;;;;;18.77;7.35;;;2.70;99.90;;;;;;5145645;27;20084;-44
2023/01/03 01:46:21;;;;;;;17.95;6.95;;;2.80;99.90;;;;;;5143952;27;20326;-42
2023/01/03 01:48:50;;;;;;;13.57;7.10;;;2.90;99.90;;;;;;5146244;27;20386;-42
2023/01/03 01:51:17;;;;;;;16.38;7.03;;;2.90;99.90;;;;;;5145496;27;20119;-42
2023/01/03 01:53:43;;;;;;;21.73;7.22;;;2.90;99.90;;;;;;5144478;27;20304;-41
2023/01/03 01:56:20;;;;;;;19.70;6.80;;;3.00;99.90;;;;;;5144847;27;20066;-43
2023/01/03 01:58:50;;;;;;;19.27;6.22;;;3.00;99.90;;;;;;5146465;27;20069;-40
2023/01/03 02:01:19;;;;;;;16.52;5.45;;;3.10;99.90;;;;;;5144116;27;20320;-39
2023/01/03 02:03:54;;;;;;;14.60;5.88;;;3.10;99.90;;;;;;5146031;27;20119;-41
2023/01/03 02:06:21;;;;;;;16.88;5.72;;;3.10;99.90;;;;;;5145266;27;20047;-45
2023/01/03 02:08:47;;;;;;;15.30;6.35;;;3.20;99.90;;;;;;5145594;27;20350;-43
2023/01/03 02:11:43;;;;;;;12.35;6.93;;;3.20;99.90;;;;;;5145068;27;20035;-39
2023/01/03 02:14:27;;;;;;;17.02;5.80;;;3.20;99.90;;;;;;5146253;27;20566;-41
2023/01/03 02:17:28;;;;;;;16.05;5.78;;;3.20;99.90;;;;;;5134189;27;20865;-42
2023/01/03 02:20:08;;;;;;;15.30;5.90;;;3.20;99.90;;;;;;5145547;27;20480;-42
2023/01/03 02:23:15;;;;;;;16.23;5.63;;;3.10;99.90;;;;;;5144658;27;20661;-42
2023/01/03 02:25:50;;;;;;;14.57;5.55;;;3.20;99.90;;;;;;5143857;27;20192;-42
2023/01/03 02:28:41;;;;;;;;;;;3.10;99.90;;;;;;5125765;27;20043;-42
2023/01/03 02:31:09;;;;;;;15.77;6.40;;;3.10;99.90;;;;;;5138631;27;19920;-41
2023/01/03 02:33:52;;;;;;;20.17;6.57;;;3.20;99.90;;;;;;5145520;27;20038;-39
2023/01/03 02:36:39;;;;;;;17.63;7.37;;;3.20;99.90;;;;;;5143477;27;20621;-45
2023/01/03 02:39:25;;;;;;;18.48;7.07;;;3.20;99.90;;;;;;5144784;27;20043;-41
2023/01/03 02:45:03;;;;;;;19.92;8.98;;;3.30;99.90;;;;;;5144518;27;20042;-43
2023/01/03 02:47:34;;;;;;;19.10;8.05;;;3.20;99.90;;;;;;5143469;27;20057;-41
2023/01/03 02:50:01;;;;;;;18.52;8.32;;;3.30;99.90;;;;;;5144989;27;20433;-44
2023/01/03 02:52:30;;;;;;;18.63;7.85;;;3.30;99.90;;;;;;5143895;27;20097;-42
2023/01/03 02:55:01;;;;;;;18.08;7.70;;;3.30;99.90;;;;;;5144387;27;20034;-44
2023/01/03 02:57:34;;;;;;;23.42;8.60;;;3.30;99.90;;;;;;5144574;27;20079;-45
2023/01/03 03:00:15;;;;;;;24.10;9.23;;;3.20;99.90;;;;;;5143292;27;20051;-42
2023/01/03 03:02:48;;;;;;;23.45;8.35;;;3.20;99.90;;;;;;5144313;27;20039;-41
2023/01/03 03:05:23;;;;;;;24.85;9.68;;;3.10;99.90;;;;;;5143755;27;20113;-43
2023/01/03 03:07:49;;;;;;;24.52;9.05;;;3.00;99.90;;;;;;5142673;27;20041;-40
2023/01/03 03:13:14;;;;;;;19.83;8.93;;;2.90;99.90;;;;;;5144310;27;20055;-40
2023/01/03 03:16:02;;;;;;;25.25;9.50;;;2.80;99.90;;;;;;5143768;27;20556;-42
2023/01/03 03:18:47;;;;;;;25.55;9.90;;;2.70;99.90;;;;;;5124009;28;20039;-40
2023/01/03 03:26:52;;;;;;;21.83;9.98;;;2.60;99.90;;;;;;5143797;27;20110;-44
2023/01/03 03:29:19;;;;;;;22.75;10.43;;;2.60;99.90;;;;;;5144580;27;20043;-43
2023/01/03 03:31:49;;;;;;;29.75;11.35;;;2.60;99.90;;;;;;5143569;27;20478;-40
2023/01/03 03:34:23;;;;;;;22.50;11.68;;;2.60;99.90;;;;;;5145166;27;20493;-41
2023/01/03 03:37:17;;;;;;;30.15;11.77;;;2.50;99.90;;;;;;5142639;27;20118;-43
2023/01/03 03:45:57;;;;;;;28.60;12.45;;;2.50;99.90;;;;;;5144075;27;20086;-43
2023/01/03 03:49:42;;;;;;;34.03;13.93;;;2.40;99.90;;;;;;5125744;27;20046;-42
2023/01/03 03:51:46;;;;;;;35.42;13.40;;;2.40;99.90;;;;;;5116799;27;20047;-42
2023/01/03 03:54:15;;;;;;;32.72;13.93;;;2.40;99.90;;;;;;5144465;27;20500;-38
2023/01/03 03:56:46;;;;;;;33.08;14.48;;;2.30;99.90;;;;;;5142947;27;20034;-42
2023/01/03 03:59:13;;;;;;;33.80;14.05;;;2.30;99.90;;;;;;5149086;27;20074;-42
2023/01/03 04:01:41;;;;;;;35.85;16.02;;;2.30;99.90;;;;;;5147185;27;20051;-45
2023/01/03 04:04:12;;;;;;;35.92;14.60;;;2.30;99.90;;;;;;5148661;27;20076;-44
2023/01/03 04:06:41;;;;;;;36.63;14.52;;;2.20;99.90;;;;;;5146831;27;20043;-40
2023/01/03 04:09:07;;;;;;;41.75;14.55;;;2.20;99.90;;;;;;5147889;27;20050;-43
2023/01/03 04:11:33;;;;;;;39.60;15.60;;;2.20;99.90;;;;;;5147394;27;20497;-42
2023/01/03 04:13:59;;;;;;;37.38;15.65;;;2.20;99.90;;;;;;5148430;27;20396;-40
2023/01/03 04:16:24;;;;;;;34.47;16.63;;;2.10;99.90;;;;;;5145954;27;20030;-43
2023/01/03 04:18:50;;;;;;;46.72;17.73;;;2.10;99.90;;;;;;5147988;27;20542;-43
2023/01/03 04:21:16;;;;;;;39.30;17.40;;;2.10;99.90;;;;;;5147853;27;20420;-44
2023/01/03 04:23:41;;;;;;;39.35;17.25;;;2.10;99.90;;;;;;5147398;27;20031;-42
2023/01/03 04:26:07;;;;;;;49.75;18.77;;;2.00;99.90;;;;;;5145643;27;20118;-41
2023/01/03 04:28:32;;;;;;;51.53;18.70;;;2.00;99.90;;;;;;5129740;27;20042;-40
2023/01/03 04:30:58;;;;;;;54.25;19.08;;;2.00;99.90;;;;;;5145950;27;20034;-40
2023/01/03 04:33:23;;;;;;;52.30;18.92;;;1.90;99.90;;;;;;5148147;27;20087;-42
2023/01/03 04:35:49;;;;;;;45.50;18.83;;;1.90;99.90;;;;;;5147400;27;20031;-44
2023/01/03 04:38:14;;;;;;;48.25;18.85;;;1.80;99.90;;;;;;5145629;27;20393;-43
2023/01/03 04:40:40;;;;;;;62.42;23.23;;;1.70;99.90;;;;;;5147398;27;20389;-43
2023/01/03 04:45:50;;;;;;;57.40;23.17;;;1.60;99.90;;;;;;5146175;27;20129;-40
2023/01/03 04:48:16;;;;;;;78.35;24.77;;;1.60;99.90;;;;;;5147127;27;20159;-39
2023/01/03 04:50:51;;;;;;;73.90;26.67;;;1.60;99.90;;;;;;5146970;27;20054;-41
2023/01/03 04:53:16;;;;;;;60.22;24.40;;;1.60;99.90;;;;;;5145897;27;20049;-42
2023/01/03 04:55:49;;;;;;;66.78;24.27;;;1.60;99.90;;;;;;5146970;27;20043;-41
2023/01/03 04:58:15;;;;;;;61.88;23.55;;;1.80;99.90;;;;;;5127220;27;20039;-40
2023/01/03 05:00:40;;;;;;;64.47;25.05;;;1.80;99.90;;;;;;5137677;27;20049;-43
2023/01/03 05:03:06;;;;;;;65.70;24.65;;;2.00;99.90;;;;;;5110104;27;20087;-40
2023/01/03 05:05:32;;;;;;;63.30;24.92;;;2.00;99.90;;;;;;5147215;27;20026;-43
2023/01/03 05:07:57;;;;;;;67.55;25.00;;;2.10;99.90;;;;;;5146248;27;20422;-43
2023/01/03 05:10:23;;;;;;;62.30;24.13;;;2.10;99.90;;;;;;5147138;27;20039;-41
2023/01/03 05:12:58;;;;;;;64.70;25.08;;;2.20;99.90;;;;;;5127799;27;20046;-43
2023/01/03 05:15:33;;;;;;;75.28;26.65;;;2.20;99.90;;;;;;5146135;27;20512;-40
2023/01/03 05:17:59;;;;;;;73.18;26.33;;;2.30;99.90;;;;;;5145723;27;20035;-41
2023/01/03 05:26:00;;;;;;;64.38;26.80;;;2.40;99.90;;;;;;5146162;27;20464;-40
2023/01/03 05:28:26;;;;;;;71.32;28.98;;;2.50;99.90;;;;;;5146952;27;20448;-43
2023/01/03 05:30:52;;;;;;;70.35;27.30;;;2.50;99.90;;;;;;5145272;27;20305;-40
2023/01/03 05:33:17;;;;;;;74.65;29.27;;;2.50;99.90;;;;;;5146672;27;20051;-40
2023/01/03 05:35:46;;;;;;;73.28;28.15;;;2.60;99.90;;;;;;5146426;27;20035;-41
2023/01/03 05:38:13;;;;;;;68.40;27.63;;;2.60;99.90;;;;;;5145032;27;20501;-43
2023/01/03 05:40:38;;;;;;;61.95;24.63;;;2.60;99.90;;;;;;5146549;27;20035;-43
2023/01/03 05:43:04;;;;;;;64.25;26.40;;;2.70;99.90;;;;;;5146037;27;20516;-43
2023/01/03 05:45:30;;;;;;;66.40;27.20;;;2.80;99.90;;;;;;5145544;27;20034;-44
2023/01/03 05:47:58;;;;;;;58.08;25.95;;;2.80;99.90;;;;;;5145593;27;20041;-40
2023/01/03 05:50:24;;;;;;;63.88;26.80;;;2.80;99.90;;;;;;5145880;27;20058;-40
2023/01/03 05:52:49;;;;;;;77.78;28.50;;;2.80;99.90;;;;;;5143984;27;20050;-40
2023/01/03 05:55:15;;;;;;;67.00;26.20;;;2.80;99.90;;;;;;5146477;27;20038;-43
2023/01/03 05:57:41;;;;;;;62.88;28.23;;;2.90;99.90;;;;;;5145241;27;20027;-43
2023/01/03 06:00:08;;;;;;;58.38;24.75;;;2.90;99.90;;;;;;5145332;27;20576;-41
2023/01/03 06:02:33;;;;;;;56.83;25.38;;;2.90;99.90;;;;;;5145292;27;20487;-43
2023/01/03 06:04:59;;;;;;;53.15;23.52;;;2.90;99.90;;;;;;5145943;27;20031;-41
2023/01/03 06:07:24;;;;;;;55.15;25.00;;;3.00;99.90;;;;;;5144676;27;20035;-42
2023/01/03 06:09:50;;;;;;;59.78;25.02;;;2.90;99.90;;;;;;5145734;27;20038;-42
2023/01/03 06:12:15;;;;;;;59.45;24.88;;;2.90;99.90;;;;;;5145276;27;20060;-42
2023/01/03 06:14:41;;;;;;;54.38;24.33;;;2.90;99.90;;;;;;5145199;27;20232;-41
2023/01/03 06:19:50;;;;;;;49.35;24.45;;;2.90;99.90;;;;;;5145307;27;20058;-42
2023/01/03 06:22:16;;;;;;;53.45;23.45;;;2.80;99.90;;;;;;5142937;27;20420;-42
2023/01/03 06:24:41;;;;;;;54.08;25.00;;;2.80;99.90;;;;;;5144666;27;20066;-42
2023/01/03 06:27:07;;;;;;;55.22;24.55;;;2.80;99.90;;;;;;5144883;27;20045;-46
2023/01/03 06:29:33;;;;;;;55.70;23.80;;;2.70;99.90;;;;;;5145233;27;20083;-42
2023/01/03 06:31:58;;;;;;;54.92;23.33;;;2.70;99.90;;;;;;5144885;27;20038;-41
2023/01/03 06:34:24;;;;;;;53.55;23.77;;;2.60;99.90;;;;;;5145607;27;20031;-43
2023/01/03 06:36:49;;;;;;;52.10;22.50;;;2.60;99.90;;;;;;5143320;27;20038;-42
2023/01/03 06:39:15;;;;;;;56.03;25.13;;;2.50;99.90;;;;;;5125931;27;20030;-43
2023/01/03 06:41:40;;;;;;;54.45;24.27;;;2.50;99.90;;;;;;5144528;27;20047;-43
2023/01/03 06:44:06;;;;;;;53.90;23.85;;;2.50;99.90;;;;;;5145561;27;20042;-40
2023/01/03 06:54:47;;;;;;;62.63;25.25;;;2.20;99.90;;;;;;5145266;27;20274;-40
2023/01/03 06:57:13;;;;;;;59.45;24.75;;;2.10;99.90;;;;;;5144504;27;20358;-43
2023/01/03 06:59:38;;;;;;;60.60;25.38;;;2.10;99.90;;;;;;5144434;27;20118;-41
2023/01/03 07:02:07;;;;;;;67.47;25.13;;;2.00;99.90;;;;;;5124732;27;20046;-44
2023/01/03 07:04:32;;;;;;;67.85;25.35;;;1.90;99.90;;;;;;5144979;27;20653;-41
2023/01/03 07:06:58;;;;;;;72.93;26.25;;;1.90;99.90;;;;;;5145482;27;20034;-44
2023/01/03 07:09:23;;;;;;;69.22;26.20;;;1.90;99.90;;;;;;5144341;27;20047;-43
2023/01/03 07:11:50;;;;;;;71.63;26.45;;;1.80;99.90;;;;;;5143994;27;20034;-42
2023/01/03 07:14:17;;;;;;;64.57;27.50;;;1.80;99.90;;;;;;5145303;27;20038;-42
2023/01/03 07:16:45;;;;;;;63.38;26.67;;;1.80;99.90;;;;;;5142453;27;20042;-41
2023/01/03 07:19:16;;;;;;;65.85;25.85;;;1.70;99.90;;;;;;5144855;27;20069;-40
2023/01/03 07:21:42;;;;;;;67.38;27.05;;;1.80;99.90;;;;;;5143977;27;20084;-43
2023/01/03 07:24:11;;;;;;;66.45;24.55;;;1.70;99.90;;;;;;5144711;27;20037;-40
2023/01/03 07:26:37;;;;;;;69.10;26.58;;;1.70;99.90;;;;;;5142966;27;20031;-43
2023/01/03 07:29:06;;;;;;;65.60;26.70;;;1.70;99.90;;;;;;5145105;27;20045;-40
2023/01/03 07:31:32;;;;;;;63.72;26.70;;;1.70;99.90;;;;;;5107251;27;20046;-44
2023/01/03 07:33:58;;;;;;;66.90;28.15;;;1.70;99.90;;;;;;5149203;27;20122;-42
2023/01/03 07:36:24;;;;;;;69.07;27.92;;;1.70;99.90;;;;;;5148227;27;20041;-40
2023/01/03 07:38:50;;;;;;;66.28;26.42;;;1.70;99.90;;;;;;5148100;27;20117;-43
2023/01/03 07:41:16;;;;;;;61.97;25.85;;;1.70;99.90;;;;;;5148600;27;20628;-41
2023/01/03 07:43:45;;;;;;;66.70;27.58;;;1.70;99.90;;;;;;5149216;27;20041;-40
2023/01/03 07:46:12;;;;;;;64.28;25.42;;;1.70;99.90;;;;;;5147170;27;20047;-41
2023/01/03 07:48:39;;;;;;;65.10;27.05;;;1.70;99.90;;;;;;5148937;27;20046;-40
2023/01/03 07:51:06;;;;;;;58.00;26.58;;;1.70;99.90;;;;;;5148046;27;20601;-41
2023/01/03 07:53:33;;;;;;;50.67;25.65;;;1.70;99.90;;;;;;5147363;27;20043;-40
2023/01/03 07:56:03;;;;;;;58.30;25.75;;;1.70;99.90;;;;;;5147948;27;20565;-41
2023/01/03 07:58:28;;;;;;;52.20;24.88;;;1.80;99.90;;;;;;5148621;27;20448;-41
2023/01/03 08:00:54;;;;;;;57.33;24.88;;;1.90;99.90;;;;;;5147340;27;20066;-43
2023/01/03 08:03:19;;;;;;;55.20;24.20;;;1.90;99.90;;;;;;5148060;27;20030;-42
2023/01/03 08:05:45;;;;;;;49.25;23.98;;;1.90;99.90;;;;;;5148153;27;20038;-41
2023/01/03 08:08:10;;;;;;;50.15;25.40;;;1.90;99.90;;;;;;5147737;27;20052;-41
2023/01/03 08:13:21;;;;;;;47.45;23.15;;;2.40;99.90;;;;;;5127560;27;20138;-39
2023/01/03 08:15:49;;;;;;;48.00;22.98;;;2.40;99.90;;;;;;5137943;27;20035;-43
2023/01/03 08:18:18;;;;;;;51.58;24.25;;;2.30;99.90;;;;;;5128121;27;20146;-41
2023/01/03 08:20:45;;;;;;;51.05;24.02;;;2.40;99.90;;;;;;5127280;27;20586;-40
2023/01/03 08:23:10;;;;;;;52.50;24.65;;;2.50;99.90;;;;;;5144283;27;20043;-43
2023/01/03 08:25:36;;;;;;;55.17;26.90;;;2.30;99.90;;;;;;5147931;27;20037;-43
2023/01/03 08:28:03;;;;;;;54.85;26.65;;;2.20;99.90;;;;;;5147552;27;20084;-40
2023/01/03 08:30:29;;;;;;;53.95;25.92;;;2.10;99.90;;;;;;5128675;27;20125;-39
2023/01/03 08:32:56;;;;;;;51.00;25.95;;;2.00;99.90;;;;;;5147441;27;20083;-41
2023/01/03 08:35:26;;;;;;;57.78;28.02;;;2.00;99.90;;;;;;5146425;27;20333;-42
2023/01/03 08:37:53;;;;;;;59.63;27.42;;;2.00;99.90;;;;;;5146601;27;20094;-39
2023/01/03 08:40:19;;;;;;;49.45;25.92;;;1.90;99.90;;;;;;5147845;27;20038;-40
2023/01/03 08:42:45;;;;;;;51.20;26.67;;;1.90;99.90;;;;;;5147086;27;20497;-40
2023/01/03 08:45:15;;;;;;;52.72;25.60;;;1.90;99.90;;;;;;5146227;27;20039;-44
2023/01/03 08:47:42;;;;;;;51.50;25.15;;;2.10;99.90;;;;;;5147053;27;20099;-39
2023/01/03 08:50:08;;;;;;;58.80;25.90;;;2.20;99.90;;;;;;5146946;27;20043;-41
2023/01/03 08:52:34;;;;;;;52.20;25.73;;;2.60;99.90;;;;;;5145810;27;20549;-40
2023/01/03 08:55:00;;;;;;;41.35;21.70;;;3.00;99.90;;;;;;5147987;27;20038;-44
2023/01/03 08:57:25;;;;;;;41.15;19.70;;;2.70;99.90;;;;;;5146833;27;20566;-41
2023/01/03 08:59:51;;;;;;;41.25;18.08;;;2.20;99.90;;;;;;5146878;27;20695;-40
2023/01/03 09:02:16;;;;;;;64.63;21.48;;;1.70;99.90;;;;;;5146652;27;20042;-40
2023/01/03 09:04:42;;;;;;;124.50;23.65;;;1.40;99.90;;;;;;5147603;27;20073;-42
2023/01/03 09:07:07;;;;;;;241.38;33.33;;;1.10;99.90;;;;;;5145872;27;20031;-42
2023/01/03 09:09:33;;;;;;;253.27;34.30;;;1.00;99.90;;;;;;5146565;27;20143;-43
2023/01/03 09:11:59;;;;;;;326.38;42.40;;;0.90;99.90;;;;;;5136893;27;20118;-40
2023/01/03 09:14:24;;;;;;;237.93;37.35;;;0.90;99.90;;;;;;5126898;27;20074;-40
2023/01/03 09:16:50;;;;;;;179.10;34.45;;;0.90;99.90;;;;;;5145032;27;20610;-41
2023/01/03 09:19:16;;;;;;;201.50;35.58;;;0.90;99.90;;;;;;5147257;27;20034;-39
2023/01/03 09:21:42;;;;;;;250.23;39.67;;;1.00;99.90;;;;;;5144905;27;20499;-43
2023/01/03 09:24:08;;;;;;;268.58;40.20;;;1.00;99.90;;;;;;5146560;27;20110;-40
2023/01/03 09:26:34;;;;;;;287.98;41.85;;;1.00;99.90;;;;;;5146263;27;20041;-40
2023/01/03 09:28:59;;;;;;;345.13;46.25;;;1.00;99.90;;;;;;5146999;27;20497;-41
2023/01/03 09:31:25;;;;;;;255.10;36.78;;;1.00;99.90;;;;;;5145082;27;20038;-42
2023/01/03 09:33:50;;;;;;;318.95;44.72;;;1.10;99.90;;;;;;5146855;27;20279;-47
2023/01/03 09:36:16;;;;;;;343.42;43.53;;;1.20;99.90;;;;;;5145818;27;20062;-40
2023/01/03 09:38:41;;;;;;;322.90;45.40;;;1.20;99.90;;;;;;5145163;27;20034;-41
2023/01/03 09:41:16;;;;;;;407.52;50.88;;;1.20;99.90;;;;;;5146217;27;20046;-39
2023/01/03 09:43:45;;;;;;;419.75;54.10;;;1.30;99.90;;;;;;5146867;27;20035;-39
2023/01/03 09:46:23;;;;;;;496.77;60.22;;;1.40;99.90;;;;;;5144750;27;20035;-42
2023/01/03 09:48:50;;;;;;;438.75;55.05;;;1.50;99.90;;;;;;5146325;27;20125;-42
2023/01/03 10:06:44;;;;;;;700.10;84.32;;;2.10;99.90;;;;;;5145615;27;20190;-41
2023/01/03 10:09:34;;;;;;;688.15;88.63;;;2.10;99.90;;;;;;5101882;27;20077;-44
2023/01/03 10:12:21;;;;;;;710.28;95.38;;;2.20;99.90;;;;;;5145665;27;20870;-40
2023/01/03 10:15:06;;;;;;;724.42;90.38;;;2.40;99.90;;;;;;5145306;27;20035;-44
2023/01/03 10:17:55;;;;;;;677.55;81.00;;;2.50;99.90;;;;;;5137734;27;20041;-44
2023/01/03 10:20:40;;;;;;;660.17;78.47;;;2.60;99.90;;;;;;5133117;27;20043;-42
2023/01/03 10:23:07;;;;;;;664.83;80.85;;;2.80;99.90;;;;;;5141049;27;20083;-39
2023/01/03 10:25:36;;;;;;;685.03;86.80;;;2.90;99.90;;;;;;5144517;27;20041;-41
2023/01/03 10:28:23;;;;;;;536.58;75.05;;;3.00;99.90;;;;;;5144586;27;20031;-41
2023/01/03 10:31:00;;;;;;;551.58;72.32;;;3.10;99.90;;;;;;5144264;27;20422;-43
2023/01/03 10:33:37;;;;;;;509.70;72.35;;;3.20;99.90;;;;;;5137973;27;20429;-42
2023/01/03 10:36:03;;;;;;;500.38;71.78;;;3.30;99.90;;;;;;5130034;27;20031;-43
2023/01/03 10:38:29;;;;;;;467.75;69.40;;;3.40;99.90;;;;;;5134304;27;20037;-42
2023/01/03 10:40:58;;;;;;;358.60;61.88;;;3.40;99.90;;;;;;5129308;27;20027;-41
2023/01/03 10:43:31;;;;;;;353.75;63.65;;;3.50;99.90;;;;;;5135114;27;20027;-41
2023/01/03 10:46:03;;;;;;;405.65;68.97;;;3.50;99.90;;;;;;5117287;27;20495;-40
2023/01/03 10:48:41;;;;;;;322.35;62.05;;;3.60;99.90;;;;;;5137555;27;20141;-41
2023/01/03 10:51:31;;;;;;;304.13;61.35;;;3.70;99.90;;;;;;5125880;27;20050;-41
2023/01/03 10:53:59;;;;;;;296.30;60.88;;;3.80;99.90;;;;;;5138298;27;20433;-40
2023/01/03 10:56:28;;;;;;;277.65;59.28;;;3.90;99.90;;;;;;5134436;27;20101;-45
2023/01/03 10:59:32;;;;;;;279.83;62.00;;;4.00;99.90;;;;;;5118488;27;20035;-39
2023/01/03 11:02:15;;;;;;;253.93;58.20;;;4.10;99.90;;;;;;5112228;27;20427;-40
2023/01/03 11:04:42;;;;;;;267.60;58.92;;;4.10;99.90;;;;;;5135777;27;20035;-39
2023/01/03 11:07:07;;;;;;;223.32;54.63;;;4.20;99.90;;;;;;5123019;27;20081;-39
2023/01/03 11:09:49;;;;;;;237.93;55.95;;;4.30;99.90;;;;;;5125861;27;20035;-40
2023/01/03 11:12:36;;;;;;;216.48;53.85;;;4.40;99.90;;;;;;5129504;27;20142;-40
2023/01/03 11:15:16;;;;;;;211.25;53.38;;;4.50;99.90;;;;;;5134735;27;20034;-44
2023/01/03 11:17:57;;;;;;;189.13;49.50;;;4.50;99.90;;;;;;5139597;27;20043;-43
2023/01/03 11:20:54;;;;;;;194.52;51.50;;;4.60;99.90;;;;;;5144208;27;20038;-43
2023/01/03 11:23:47;;;;;;;161.93;47.65;;;4.70;99.90;;;;;;5121707;28;20103;-41
2023/01/03 11:26:37;;;;;;;184.55;50.22;;;4.70;99.90;;;;;;5136253;27;20027;-41
2023/01/03 11:29:28;;;;;;;164.15;46.08;;;4.90;99.90;;;;;;5137087;27;20091;-44
2023/01/03 11:32:20;;;;;;;121.72;41.47;;;5.00;99.90;;;;;;5138220;27;20043;-45
2023/01/03 11:35:09;;;;;;;120.53;42.75;;;5.00;99.90;;;;;;5135923;27;20043;-43
2023/01/03 11:37:41;;;;;;;122.55;40.88;;;5.00;99.90;;;;;;5143075;27;20081;-39
2023/01/03 11:40:34;;;;;;;110.15;39.88;;;5.00;99.90;;;;;;5144502;27;20550;-43
2023/01/03 11:43:24;;;;;;;119.90;42.33;;;5.00;99.90;;;;;;5143214;27;20612;-42
2023/01/03 11:46:05;;;;;;;128.05;43.35;;;5.10;99.90;;;;;;5138823;27;20035;-43
2023/01/03 11:48:51;;;;;;;116.43;41.88;;;5.10;99.90;;;;;;5144034;27;20046;-59
2023/01/03 11:52:03;;;;;;;110.88;39.88;;;5.20;99.90;;;;;;5121559;27;20055;-58
2023/01/03 11:55:06;;;;;;;89.55;37.47;;;5.30;99.90;;;;;;5112478;27;20134;-59
2023/01/03 11:58:01;;;;;;;107.60;38.80;;;5.40;99.90;;;;;;5113665;27;20134;-61
2023/01/03 12:00:55;;;;;;;103.15;39.22;;;5.40;99.90;;;;;;5129975;27;20047;-61
2023/01/03 12:03:51;;;;;;;96.43;38.10;;;5.40;99.90;;;;;;5128960;27;20034;-61
2023/01/03 12:06:26;;;;;;;96.68;38.20;;;5.40;99.90;;;;;;5110496;27;20126;-59
2023/01/03 12:09:20;;;;;;;98.88;39.72;;;5.50;99.90;;;;;;5125006;27;20078;-59
2023/01/03 12:11:54;;;;;;;99.10;38.83;;;5.50;99.90;;;;;;5116115;27;20039;-59
2023/01/03 12:14:25;;;;;;;89.53;36.88;;;5.60;99.90;;;;;;5115677;27;20103;-60
2023/01/03 12:16:59;;;;;;;82.18;37.30;;;5.60;99.90;;;;;;5112087;27;20046;-59
2023/01/03 12:19:49;;;;;;;89.88;37.90;;;5.60;99.90;;;;;;5138588;27;20440;-59
2023/01/03 12:22:21;;;;;;;92.40;37.70;;;5.60;99.90;;;;;;5117590;27;20046;-59
2023/01/03 12:24:55;;;;;;;92.13;38.33;;;5.60;99.90;;;;;;5136413;27;20030;-59
2023/01/03 12:28:10;;;;;;;93.72;38.33;;;5.60;99.90;;;;;;5120614;27;20082;-61
2023/01/03 12:31:00;;;;;;;86.97;37.33;;;5.60;99.90;;;;;;5032489;28;20116;-59
2023/01/03 12:33:35;;;;;;;87.43;34.97;;;5.60;99.90;;;;;;5135180;27;20636;-59
2023/01/03 12:36:16;;;;;;;79.53;34.55;;;5.70;99.90;;;;;;5133905;27;20046;-59
2023/01/03 12:38:54;;;;;;;78.32;33.03;;;5.70;99.90;;;;;;5140283;27;20030;-58
2023/01/03 12:41:32;;;;;;;72.05;34.03;;;5.70;99.90;;;;;;5139482;27;20657;-60
2023/01/03 12:44:14;;;;;;;78.32;33.42;;;5.70;99.90;;;;;;5133345;27;20453;-59
2023/01/03 12:46:45;;;;;;;74.43;34.03;;;5.70;99.90;;;;;;5139596;27;20034;-61
2023/01/03 12:49:14;;;;;;;75.63;31.40;;;5.70;99.90;;;;;;5119590;27;20053;-59
2023/01/03 12:51:39;;;;;;;70.05;31.27;;;5.80;99.90;;;;;;5145651;27;20053;-59
2023/01/03 12:54:26;;;;;;;71.22;31.48;;;5.80;99.90;;;;;;5143054;27;20046;-59
2023/01/03 12:57:19;;;;;;;65.03;30.95;;;5.90;99.90;;;;;;5145452;27;20050;-60
2023/01/03 12:59:44;;;;;;;62.00;29.55;;;5.90;99.90;;;;;;5146754;27;20039;-60
2023/01/03 13:02:40;;;;;;;69.95;32.03;;;5.90;99.90;;;;;;5146029;27;20045;-61
2023/01/03 13:05:18;;;;;;;65.18;29.75;;;5.90;99.90;;;;;;5146751;27;20099;-60
2023/01/03 13:07:56;;;;;;;57.13;29.95;;;6.00;99.90;;;;;;5127503;27;20046;-60
2023/01/03 13:10:27;;;;;;;57.10;29.48;;;6.00;99.90;;;;;;5126947;27;20027;-60
2023/01/03 13:12:53;;;;;;;59.13;29.38;;;6.00;99.90;;;;;;5145912;27;20046;-60
2023/01/03 13:15:35;;;;;;;60.85;28.02;;;6.00;99.90;;;;;;5145722;27;20142;-58
2023/01/03 13:18:21;;;;;;;59.85;28.55;;;6.10;99.90;;;;;;5136764;27;20505;-59
2023/01/03 13:20:48;;;;;;;64.75;29.67;;;6.10;99.90;;;;;;5134519;27;20072;-59
2023/01/03 13:23:33;;;;;;;66.47;28.35;;;6.10;99.90;;;;;;5110960;27;20038;-61
2023/01/03 13:26:04;;;;;;;;;;;6.10;99.90;;;;;;5134367;27;20035;-61
2023/01/03 13:28:34;;;;;;;58.17;26.92;;;6.00;99.90;;;;;;5125022;27;20111;-60
2023/01/03 13:31:17;;;;;;;55.78;25.65;;;6.10;99.90;;;;;;5131747;27;20460;-59
2023/01/03 13:33:56;;;;;;;51.00;25.20;;;6.10;99.90;;;;;;5133900;27;20408;-58
2023/01/03 13:36:23;;;;;;;53.75;25.10;;;6.10;99.90;;;;;;5136294;27;20046;-60
2023/01/03 13:38:49;;;;;;;55.72;24.85;;;6.10;99.90;;;;;;5146101;27;20541;-60
2023/01/03 13:41:34;;;;;;;57.50;25.00;;;6.10;99.90;;;;;;5144556;27;20110;-60
2023/01/03 13:44:22;;;;;;;53.75;25.10;;;6.20;99.90;;;;;;5146187;27;20039;-59
2023/01/03 13:46:49;;;;;;;47.28;22.23;;;6.20;99.90;;;;;;5144431;27;20039;-60
2023/01/03 13:49:46;;;;;;;46.70;22.77;;;6.20;99.90;;;;;;5147097;27;20429;-61
2023/01/03 13:52:36;;;;;;;41.22;23.02;;;6.30;99.90;;;;;;5143362;27;20138;-57
2023/01/03 13:55:03;;;;;;;43.50;21.63;;;6.30;99.90;;;;;;5111221;27;20043;-60
2023/01/03 13:57:37;;;;;;;43.30;21.83;;;6.30;99.90;;;;;;5145406;27;20429;-60
2023/01/03 14:00:12;;;;;;;45.08;21.88;;;6.40;99.90;;;;;;5145734;27;20045;-58